Time;durP1;ratioP1;P1;durP2;ratioP2;P2;SDS_P1;SDS_P2;PMS_P1;PMS_P2;Temp;Humidity;BMP_temperature;BMP_pressure;BME280_temperature;BME280_humidity;BME280_pressure;Samples;Min_cycle;Max_cycle;Signal;HPM_P1;HPM_P2
2023/05/27 00:01:06;;;;;;;;;;;;;;;26.66;26.20;98844.34;5072484;28;20343;-84
2023/05/27 00:03:32;;;;;;;;;;;;;;;26.63;26.26;98850.84;5070896;28;19921;-84
2023/05/27 00:06:00;;;;;;;;;;;;;;;26.35;26.77;98852.19;5061286;28;19947;-84
2023/05/27 00:08:26;;;;;;;;;;;;;;;26.31;26.69;98854.28;5074191;28;19927;-84
2023/05/27 00:10:52;;;;;;;;;;;;;;;26.33;26.84;98849.00;5074614;28;19927;-85
2023/05/27 00:13:18;;;;;;;;;;;;;;;26.13;27.49;98859.44;5076075;28;19963;-85
2023/05/27 00:15:44;;;;;;;;;;;;;;;25.89;27.82;98855.00;5074227;28;20482;-85
2023/05/27 00:18:11;;;;;;;;;;;;;;;25.82;27.41;98852.31;5076612;28;19916;-85
2023/05/27 00:20:37;;;;;;;;;;;;;;;25.89;27.23;98846.56;5076582;28;19916;-85
2023/05/27 00:23:03;;;;;;;;;;;;;;;26.15;27.19;98848.56;5078701;28;19931;-85
2023/05/27 00:25:29;;;;;;;;;;;;;;;26.23;27.06;98843.59;5057842;28;19967;-85
2023/05/27 00:27:55;;;;;;;;;;;;;;;26.31;26.89;98842.22;5079380;28;20614;-85
2023/05/27 00:30:21;;;;;;;;;;;;;;;26.07;27.12;98842.22;5076008;28;20549;-85
2023/05/27 00:32:47;;;;;;;;;;;;;;;26.16;26.64;98840.91;5072154;28;20407;-85
2023/05/27 00:35:13;;;;;;;;;;;;;;;25.85;27.27;98835.38;5073351;28;19967;-85
2023/05/27 00:37:40;;;;;;;;;;;;;;;26.10;26.50;98834.97;5067637;28;19920;-85
2023/05/27 00:40:09;;;;;;;;;;;;;;;25.72;27.36;98842.06;5076704;28;19939;-85
2023/05/27 00:42:36;;;;;;;;;;;;;;;25.70;27.17;98838.84;5069302;28;19921;-85
2023/05/27 00:45:05;;;;;;;;;;;;;;;25.64;27.46;98847.00;5066231;28;19920;-85
2023/05/27 00:47:32;;;;;;;;;;;;;;;25.84;26.70;98832.97;5086834;28;19928;-85
2023/05/27 00:49:58;;;;;;;;;;;;;;;25.67;27.17;98842.53;5073752;28;20383;-84
2023/05/27 00:52:24;;;;;;;;;;;;;;;25.71;27.30;98832.81;5074416;28;19928;-85
2023/05/27 00:54:51;;;;;;;;;;;;;;;25.70;26.73;98848.09;5071009;28;20012;-85
2023/05/27 00:57:17;;;;;;;;;;;;;;;25.31;27.56;98848.69;5074130;28;19964;-85
2023/05/27 00:59:43;;;;;;;;;;;;;;;25.09;27.75;98855.00;5073945;28;19963;-84
2023/05/27 01:02:10;;;;;;;;;;;;;;;25.16;27.88;98855.72;5071492;28;19959;-84
2023/05/27 01:04:36;;;;;;;;;;;;;;;25.37;27.51;98861.03;5067686;28;20265;-84
2023/05/27 01:07:05;;;;;;;;;;;;;;;25.35;27.75;98855.03;5072469;28;19920;-84
2023/05/27 01:09:36;;;;;;;;;;;;;;;25.49;27.41;98858.88;5074793;28;20372;-84
2023/05/27 01:12:14;;;;;;;;;;;;;;;25.62;26.86;98849.44;5074229;28;20411;-85
2023/05/27 01:14:42;;;;;;;;;;;;;;;25.21;27.33;98866.47;5072656;28;19921;-85
2023/05/27 01:17:09;;;;;;;;;;;;;;;25.21;27.80;98862.88;5074071;28;19921;-84
2023/05/27 01:19:44;;;;;;;;;;;;;;;25.13;27.63;98859.38;5068672;28;19925;-84
2023/05/27 01:22:14;;;;;;;;;;;;;;;25.10;27.23;98854.59;5065370;28;19932;-85
2023/05/27 01:24:44;;;;;;;;;;;;;;;24.99;27.74;98859.56;5073889;28;19950;-85
2023/05/27 01:27:15;;;;;;;;;;;;;;;25.05;27.73;98852.25;5063414;28;19978;-85
2023/05/27 01:29:41;;;;;;;;;;;;;;;25.20;27.14;98850.84;5072570;28;19921;-84
2023/05/27 01:32:10;;;;;;;;;;;;;;;25.29;27.31;98850.31;5074539;28;19935;-84
2023/05/27 01:34:59;;;;;;;;;;;;;;;25.34;27.21;98847.03;5073232;28;19924;-84
2023/05/27 01:37:28;;;;;;;;;;;;;;;25.31;27.15;98854.31;5063255;28;19966;-84
2023/05/27 01:39:54;;;;;;;;;;;;;;;25.19;26.92;98849.25;5071682;28;20015;-84
2023/05/27 01:42:21;;;;;;;;;;;;;;;25.17;27.08;98854.50;5067881;28;20272;-84
2023/05/27 01:44:47;;;;;;;;;;;;;;;25.12;27.11;98845.75;5065196;28;19978;-85
2023/05/27 01:47:13;;;;;;;;;;;;;;;25.09;27.16;98855.81;5074216;28;20264;-84
2023/05/27 01:49:39;;;;;;;;;;;;;;;25.16;26.49;98849.28;5074863;28;20371;-84
2023/05/27 01:52:05;;;;;;;;;;;;;;;25.10;26.37;98854.59;5076698;28;19931;-84
2023/05/27 01:54:31;;;;;;;;;;;;;;;25.12;26.42;98856.97;5071570;28;20438;-84
2023/05/27 01:56:57;;;;;;;;;;;;;;;24.97;26.57;98855.59;5067219;28;19924;-84
2023/05/27 01:59:23;;;;;;;;;;;;;;;25.07;26.68;98858.25;5071178;28;20007;-85
2023/05/27 02:01:51;;;;;;;;;;;;;;;25.20;26.56;98864.09;5071753;28;19921;-85
2023/05/27 02:04:17;;;;;;;;;;;;;;;25.30;26.49;98861.13;5072670;28;19920;-85
2023/05/27 02:06:43;;;;;;;;;;;;;;;25.41;26.47;98864.56;5079685;28;20299;-85
2023/05/27 02:09:12;;;;;;;;;;;;;;;25.44;25.94;98874.22;5084928;28;20402;-85
2023/05/27 02:11:38;;;;;;;;;;;;;;;25.46;26.36;98865.38;5077289;28;20007;-85
2023/05/27 02:14:05;;;;;;;;;;;;;;;25.36;26.18;98861.47;5073571;28;20363;-85
2023/05/27 02:16:33;;;;;;;;;;;;;;;25.35;26.26;98865.47;5074497;28;19939;-85
2023/05/27 02:19:00;;;;;;;;;;;;;;;25.35;26.20;98865.47;5073817;28;19928;-85
2023/05/27 02:21:26;;;;;;;;;;;;;;;25.06;26.57;98867.13;5060725;28;19932;-85
2023/05/27 02:23:52;;;;;;;;;;;;;;;25.03;26.40;98868.75;5080417;28;19921;-85
2023/05/27 02:26:19;;;;;;;;;;;;;;;25.12;26.60;98874.66;5072142;28;19924;-86
2023/05/27 02:28:45;;;;;;;;;;;;;;;25.21;26.75;98880.53;5067879;28;20381;-85
2023/05/27 02:31:11;;;;;;;;;;;;;;;25.22;26.26;98889.78;5070857;28;19916;-85
2023/05/27 02:33:37;;;;;;;;;;;;;;;25.25;26.16;98880.50;5065850;28;20481;-85
2023/05/27 02:36:03;;;;;;;;;;;;;;;25.17;25.96;98879.81;5053979;28;19962;-85
2023/05/27 02:38:29;;;;;;;;;;;;;;;24.84;26.10;98885.44;5054666;28;19963;-85
2023/05/27 02:40:55;;;;;;;;;;;;;;;24.71;26.78;98885.19;5069366;28;19920;-86
2023/05/27 02:43:21;;;;;;;;;;;;;;;24.65;26.68;98892.44;5072706;28;19927;-85
2023/05/27 02:45:47;;;;;;;;;;;;;;;24.52;27.16;98894.22;5057659;28;20013;-85
2023/05/27 02:48:13;;;;;;;;;;;;;;;24.73;26.66;98888.38;5054075;28;19917;-85
2023/05/27 02:50:39;;;;;;;;;;;;;;;24.73;26.66;98894.78;5073413;28;19928;-85
2023/05/27 02:53:05;;;;;;;;;;;;;;;24.78;26.86;98893.56;5073736;28;19920;-85
2023/05/27 02:55:31;;;;;;;;;;;;;;;24.68;27.18;98900.84;5072727;28;19924;-85
2023/05/27 02:57:57;;;;;;;;;;;;;;;24.92;26.64;98899.00;5073881;28;19920;-86
2023/05/27 03:00:23;;;;;;;;;;;;;;;25.07;26.54;98891.16;5089581;28;19943;-85
2023/05/27 03:02:49;;;;;;;;;;;;;;;25.13;26.08;98890.31;5065816;28;19927;-85
2023/05/27 03:05:15;;;;;;;;;;;;;;;25.24;26.32;98893.75;5059319;28;19921;-85
2023/05/27 03:07:42;;;;;;;;;;;;;;;25.31;26.02;98901.28;5053652;28;20071;-84
2023/05/27 03:10:08;;;;;;;;;;;;;;;25.27;25.81;98903.34;5070657;28;19917;-85
2023/05/27 03:12:34;;;;;;;;;;;;;;;25.19;26.46;98907.47;5072915;28;20428;-85
2023/05/27 03:15:00;;;;;;;;;;;;;;;25.28;26.39;98905.75;5070898;28;19917;-85
2023/05/27 03:17:26;;;;;;;;;;;;;;;25.38;26.24;98904.81;5068717;28;20312;-85
2023/05/27 03:19:52;;;;;;;;;;;;;;;25.51;25.79;98899.41;5065443;28;20014;-85
2023/05/27 03:22:18;;;;;;;;;;;;;;;25.57;26.06;98911.00;5067917;28;20360;-86
2023/05/27 03:24:44;;;;;;;;;;;;;;;25.36;26.26;98912.88;5072715;28;19966;-85
2023/05/27 03:27:10;;;;;;;;;;;;;;;25.41;26.57;98918.00;5059863;28;19975;-86
2023/05/27 03:29:36;;;;;;;;;;;;;;;25.63;26.04;98918.53;5068834;28;19975;-86
2023/05/27 03:32:02;;;;;;;;;;;;;;;25.88;26.23;98912.53;5072808;28;19927;-86
2023/05/27 03:34:28;;;;;;;;;;;;;;;26.10;26.09;98919.41;5068215;28;19967;-86
2023/05/27 03:36:54;;;;;;;;;;;;;;;25.97;25.96;98918.41;5066270;28;19928;-86
2023/05/27 03:39:20;;;;;;;;;;;;;;;25.84;27.13;98928.66;5066619;28;19917;-85
2023/05/27 03:41:46;;;;;;;;;;;;;;;26.06;27.09;98913.81;5066026;28;19920;-86
2023/05/27 03:44:12;;;;;;;;;;;;;;;26.58;26.77;98914.09;5059202;28;19971;-86
2023/05/27 03:46:38;;;;;;;;;;;;;;;26.83;26.32;98922.13;5070458;28;19935;-86
2023/05/27 03:49:05;;;;;;;;;;;;;;;26.77;26.69;98925.88;5077127;28;19928;-86
2023/05/27 03:51:31;;;;;;;;;;;;;;;26.98;26.90;98922.66;5077301;28;19931;-86
2023/05/27 03:53:57;;;;;;;;;;;;;;;27.28;26.45;98930.88;5077391;28;19966;-86
2023/05/27 03:56:23;;;;;;;;;;;;;;;27.45;26.37;98934.53;5065052;28;19924;-86
2023/05/27 03:58:49;;;;;;;;;;;;;;;27.31;27.28;98935.63;5069208;28;19966;-86
2023/05/27 04:01:16;;;;;;;;;;;;;;;27.45;27.32;98931.72;5071978;28;19943;-87
2023/05/27 04:03:43;;;;;;;;;;;;;;;27.65;26.83;98924.03;5072202;28;19928;-87
2023/05/27 04:06:09;;;;;;;;;;;;;;;27.77;27.28;98935.41;5071859;28;20383;-87
2023/05/27 04:08:37;;;;;;;;;;;;;;;27.80;27.13;98931.69;5073288;28;20296;-87
2023/05/27 04:11:03;;;;;;;;;;;;;;;27.96;26.32;98934.53;5072771;28;20291;-86
2023/05/27 04:13:29;;;;;;;;;;;;;;;27.84;27.23;98937.28;5074774;28;19927;-87
2023/05/27 04:15:56;;;;;;;;;;;;;;;27.90;27.88;98941.16;5072725;28;20338;-87
2023/05/27 04:18:22;;;;;;;;;;;;;;;28.15;27.63;98934.91;5072160;28;19982;-87
2023/05/27 04:20:50;;;;;;;;;;;;;;;28.39;27.40;98937.13;5074814;28;19920;-87
2023/05/27 04:23:16;;;;;;;;;;;;;;;28.68;26.37;98943.63;5063420;28;19921;-87
2023/05/27 04:25:42;;;;;;;;;;;;;;;28.77;26.67;98940.19;5063749;28;19928;-87
2023/05/27 04:28:08;;;;;;;;;;;;;;;28.82;27.44;98950.16;5064377;28;19927;-86
2023/05/27 04:30:35;;;;;;;;;;;;;;;29.21;27.33;98947.03;5074481;28;19927;-87
2023/05/27 04:33:02;;;;;;;;;;;;;;;29.54;26.57;98954.13;5073723;28;19924;-87
2023/05/27 04:35:30;;;;;;;;;;;;;;;29.61;27.36;98948.25;5074673;28;20379;-86
2023/05/27 04:37:58;;;;;;;;;;;;;;;29.84;27.46;98956.44;5075260;28;19921;-86
2023/05/27 04:40:24;;;;;;;;;;;;;;;30.15;26.91;98953.84;5082829;28;19926;-86
2023/05/27 04:42:51;;;;;;;;;;;;;;;30.34;24.94;98952.81;5105223;28;19920;-86
2023/05/27 04:45:18;;;;;;;;;;;;;;;30.10;24.14;98957.25;5074798;28;19923;-87
2023/05/27 04:47:53;;;;;;;;;;;;;;;28.95;24.89;98959.47;5073674;28;19928;-89
2023/05/27 04:50:20;;;;;;;;;;;;;;;28.74;26.43;98955.19;5066529;28;19944;-87
2023/05/27 04:52:47;;;;;;;;;;;;;;;26.33;29.34;98961.63;5068022;28;19928;-86
2023/05/27 04:55:18;;;;;;;;;;;;;;;24.93;32.86;98970.00;5067960;28;20338;-86
2023/05/27 04:57:45;;;;;;;;;;;;;;;24.65;31.88;98960.66;5071227;28;20426;-86
2023/05/27 05:02:39;;;;;;;;;;;;;;;24.43;33.11;98961.28;5072437;28;19967;-86
2023/05/27 05:05:06;;;;;;;;;;;;;;;23.47;31.87;98958.38;5070625;28;20442;-84
2023/05/27 05:07:33;;;;;;;;;;;;;;;22.85;34.16;98963.78;5070720;28;19978;-85
2023/05/27 05:09:59;;;;;;;;;;;;;;;23.65;34.86;98964.66;5070312;28;19924;-84
2023/05/27 05:12:25;;;;;;;;;;;;;;;23.89;34.51;98972.13;5068278;28;19921;-84
2023/05/27 05:14:51;;;;;;;;;;;;;;;23.12;34.68;98962.13;5073597;28;19956;-85
2023/05/27 05:17:18;;;;;;;;;;;;;;;22.57;35.47;98978.63;5070436;28;19921;-85
2023/05/27 05:19:44;;;;;;;;;;;;;;;22.76;34.74;98977.41;5071136;28;19928;-85
2023/05/27 05:22:13;;;;;;;;;;;;;;;23.74;31.83;98965.00;5073534;28;19924;-86
2023/05/27 05:24:39;;;;;;;;;;;;;;;24.48;30.26;98969.25;5069552;28;19920;-86
2023/05/27 05:27:07;;;;;;;;;;;;;;;24.53;30.03;98969.59;5074364;28;19966;-84
2023/05/27 05:29:33;;;;;;;;;;;;;;;25.70;29.99;98968.25;5074644;28;19983;-85
2023/05/27 05:31:59;;;;;;;;;;;;;;;24.82;29.37;98966.53;5076269;28;19978;-85
2023/05/27 05:34:28;;;;;;;;;;;;;;;25.24;30.46;98966.84;5072759;28;20367;-84
2023/05/27 05:36:54;;;;;;;;;;;;;;;25.10;31.71;98960.59;5068268;28;19928;-85
2023/05/27 05:39:20;;;;;;;;;;;;;;;24.50;31.92;98961.22;5064294;28;20383;-84
2023/05/27 05:41:46;;;;;;;;;;;;;;;25.59;28.47;98970.41;5067424;28;19921;-86
2023/05/27 05:44:12;;;;;;;;;;;;;;;25.77;31.00;98957.69;5066475;28;19925;-84
2023/05/27 05:46:38;;;;;;;;;;;;;;;26.27;28.25;98957.72;5069846;28;19967;-84
2023/05/27 05:49:05;;;;;;;;;;;;;;;26.38;28.83;98966.78;5079863;28;19931;-83
2023/05/27 05:51:31;;;;;;;;;;;;;;;26.90;26.62;98963.44;5070896;28;20002;-83
2023/05/27 05:53:57;;;;;;;;;;;;;;;25.83;30.93;98966.47;5070649;28;20286;-83
2023/05/27 05:56:25;;;;;;;;;;;;;;;26.92;27.85;98967.44;5072688;28;19920;-83
2023/05/27 05:58:52;;;;;;;;;;;;;;;26.70;26.71;98971.84;5073633;28;19920;-85
2023/05/27 06:01:18;;;;;;;;;;;;;;;27.32;28.06;98965.41;5071943;28;19956;-84
2023/05/27 06:03:44;;;;;;;;;;;;;;;25.33;29.91;98972.75;5072918;28;20333;-83
2023/05/27 06:06:10;;;;;;;;;;;;;;;27.15;25.46;98969.38;5066450;28;20018;-83
2023/05/27 06:08:36;;;;;;;;;;;;;;;27.59;25.77;98971.69;5068104;28;20303;-91
2023/05/27 06:11:03;;;;;;;;;;;;;;;26.12;29.49;98973.25;5069948;28;20402;-88
2023/05/27 06:13:29;;;;;;;;;;;;;;;26.43;27.47;98985.22;5072534;28;19920;-87
2023/05/27 06:15:58;;;;;;;;;;;;;;;27.59;26.78;98970.91;5065689;28;20308;-86
2023/05/27 06:18:24;;;;;;;;;;;;;;;27.15;27.01;98986.31;5068629;28;19944;-86
2023/05/27 06:20:50;;;;;;;;;;;;;;;26.79;27.06;98979.78;5071120;28;20147;-87
2023/05/27 06:23:16;;;;;;;;;;;;;;;27.31;25.62;98981.53;5070107;28;20327;-86
2023/05/27 06:25:42;;;;;;;;;;;;;;;28.83;25.40;98983.63;5068743;28;19932;-88
2023/05/27 06:28:08;;;;;;;;;;;;;;;28.88;24.42;98983.09;5068447;28;19920;-86
2023/05/27 06:30:35;;;;;;;;;;;;;;;29.10;25.89;98983.28;5064122;28;19931;-85
2023/05/27 06:33:01;;;;;;;;;;;;;;;29.52;24.84;98981.28;5072755;28;19968;-86
2023/05/27 06:35:28;;;;;;;;;;;;;;;30.18;23.78;98986.13;5071073;28;20019;-87
2023/05/27 06:37:54;;;;;;;;;;;;;;;29.27;23.04;98987.66;5070616;28;20697;-85
2023/05/27 06:40:20;;;;;;;;;;;;;;;29.16;24.59;98989.97;5067357;28;19927;-86
2023/05/27 06:42:46;;;;;;;;;;;;;;;29.81;24.08;98979.19;5067412;28;20296;-86
2023/05/27 06:45:12;;;;;;;;;;;;;;;30.41;21.84;98983.72;5073691;28;20287;-86
2023/05/27 06:47:38;;;;;;;;;;;;;;;30.49;22.79;98979.44;5072038;28;19920;-87
2023/05/27 06:50:04;;;;;;;;;;;;;;;30.49;23.01;98976.59;5072511;28;20252;-88
2023/05/27 06:52:30;;;;;;;;;;;;;;;30.63;23.13;98976.09;5072523;28;19916;-87
2023/05/27 06:54:56;;;;;;;;;;;;;;;29.66;24.34;98967.50;5073733;28;19929;-88
2023/05/27 06:57:22;;;;;;;;;;;;;;;29.81;25.00;98976.38;5068645;28;20295;-87
2023/05/27 06:59:48;;;;;;;;;;;;;;;30.83;23.22;98975.03;5066821;28;20442;-86
2023/05/27 07:02:15;;;;;;;;;;;;;;;30.51;22.18;98967.63;5061055;28;20040;-87
2023/05/27 07:04:41;;;;;;;;;;;;;;;29.79;23.96;98973.19;5070990;28;19924;-86
2023/05/27 07:07:07;;;;;;;;;;;;;;;30.15;22.59;98973.66;5070160;28;19916;-85
2023/05/27 07:09:33;;;;;;;;;;;;;;;30.66;21.80;98978.03;5064584;28;20326;-86
2023/05/27 07:12:01;;;;;;;;;;;;;;;31.16;21.28;98970.59;5072079;28;19921;-87
2023/05/27 07:14:27;;;;;;;;;;;;;;;31.62;21.14;98972.53;5068719;28;20032;-86
2023/05/27 07:16:53;;;;;;;;;;;;;;;32.09;19.91;98973.06;5069572;28;19917;-87
2023/05/27 07:19:19;;;;;;;;;;;;;;;32.15;22.13;98978.16;5067691;28;20015;-89
2023/05/27 07:21:45;;;;;;;;;;;;;;;32.15;22.45;98973.25;5066642;28;19932;-86
2023/05/27 07:24:11;;;;;;;;;;;;;;;32.43;21.54;98969.25;5064974;28;19931;-86
2023/05/27 07:26:38;;;;;;;;;;;;;;;32.70;21.56;98977.06;5068303;28;19916;-86
2023/05/27 07:29:04;;;;;;;;;;;;;;;33.09;21.98;98973.34;5069786;28;19928;-86
2023/05/27 07:31:30;;;;;;;;;;;;;;;33.01;21.10;98966.38;5066664;28;20378;-89
2023/05/27 07:33:56;;;;;;;;;;;;;;;32.99;22.07;98979.44;5065853;28;19931;-90
2023/05/27 07:36:22;;;;;;;;;;;;;;;33.31;21.77;98968.22;5071475;28;20011;-91
2023/05/27 07:38:48;;;;;;;;;;;;;;;33.62;20.95;98970.09;5069181;28;20011;-89
2023/05/27 07:41:15;;;;;;;;;;;;;;;33.65;19.93;98964.25;5082208;28;19978;-90
2023/05/27 07:43:41;;;;;;;;;;;;;;;33.35;20.87;98965.25;5060510;28;19921;-90
2023/05/27 07:46:07;;;;;;;;;;;;;;;32.60;20.04;98966.94;5062573;28;19921;-89
2023/05/27 07:48:33;;;;;;;;;;;;;;;31.24;25.22;98972.72;5067004;28;19920;-91
2023/05/27 07:50:59;;;;;;;;;;;;;;;31.08;21.60;98977.78;5066170;28;20268;-90
2023/05/27 07:53:25;;;;;;;;;;;;;;;30.06;24.52;98979.19;5069712;28;19921;-90
2023/05/27 07:55:51;;;;;;;;;;;;;;;29.06;26.80;98972.06;5065450;28;19959;-91
2023/05/27 07:58:17;;;;;;;;;;;;;;;29.24;22.56;98980.09;5066010;28;19974;-90
2023/05/27 08:00:43;;;;;;;;;;;;;;;28.18;27.34;98973.59;5066359;28;19920;-92
2023/05/27 08:03:09;;;;;;;;;;;;;;;28.63;24.33;98972.47;5064811;28;19924;-90
2023/05/27 08:05:35;;;;;;;;;;;;;;;28.03;27.65;98976.75;5065101;28;19931;-91
2023/05/27 08:08:01;;;;;;;;;;;;;;;29.43;22.77;98967.78;5061971;28;19974;-91
2023/05/27 08:10:27;;;;;;;;;;;;;;;29.08;25.54;98968.81;5068031;28;19928;-89
2023/05/27 08:12:53;;;;;;;;;;;;;;;29.16;23.62;98967.34;5095799;28;19924;-90
2023/05/27 08:15:20;;;;;;;;;;;;;;;29.19;22.70;98969.31;5063088;28;19975;-89
2023/05/27 08:17:46;;;;;;;;;;;;;;;30.00;22.00;98972.53;5084999;28;20307;-90
2023/05/27 08:20:12;;;;;;;;;;;;;;;30.83;22.98;98970.13;5102147;28;20307;-88
2023/05/27 08:22:39;;;;;;;;;;;;;;;31.69;20.98;98969.41;5070407;28;19928;-89
2023/05/27 08:25:05;;;;;;;;;;;;;;;31.65;22.46;98971.56;5069706;28;20256;-89
2023/05/27 08:27:46;;;;;;;;;;;;;;;29.04;22.52;98977.38;5071856;28;20395;-88
2023/05/27 08:30:13;;;;;;;;;;;;;;;29.24;24.26;98972.38;5072573;28;19924;-88
2023/05/27 08:32:52;;;;;;;;;;;;;;;29.21;25.19;98972.50;5070909;28;19932;-89
2023/05/27 08:35:18;;;;;;;;;;;;;;;28.67;23.28;98973.16;5074263;28;19921;-90
2023/05/27 08:37:44;;;;;;;;;;;;;;;27.62;26.69;98975.66;5073820;28;20049;-89
2023/05/27 08:40:12;;;;;;;;;;;;;;;27.44;27.69;98973.25;5074806;28;19970;-89
2023/05/27 08:42:39;;;;;;;;;;;;;;;27.93;23.71;98968.50;5071632;28;19928;-90
2023/05/27 08:45:05;;;;;;;;;;;;;;;27.91;27.46;98971.75;5071643;28;19924;-88
2023/05/27 08:47:32;;;;;;;;;;;;;;;27.58;27.10;98970.13;5068170;28;20120;-89
2023/05/27 08:50:01;;;;;;;;;;;;;;;27.11;28.57;98968.69;5070553;28;19921;-88
2023/05/27 08:52:27;;;;;;;;;;;;;;;27.60;24.47;98955.56;5075131;28;19928;-90
2023/05/27 08:54:54;;;;;;;;;;;;;;;28.67;24.23;98952.56;5076575;28;19921;-87
2023/05/27 08:57:24;;;;;;;;;;;;;;;28.34;25.67;98954.59;5071320;28;20283;-87
2023/05/27 08:59:50;;;;;;;;;;;;;;;28.86;23.78;98951.63;5073515;28;19927;-92
2023/05/27 09:02:18;;;;;;;;;;;;;;;28.18;26.83;98954.63;5072146;28;20421;-89
2023/05/27 09:04:45;;;;;;;;;;;;;;;29.75;23.93;98949.84;5073853;28;19920;-91
2023/05/27 09:07:11;;;;;;;;;;;;;;;28.22;27.76;98954.50;5074841;28;19923;-91
2023/05/27 09:09:38;;;;;;;;;;;;;;;29.71;22.33;98949.16;5069575;28;19954;-89
2023/05/27 09:12:05;;;;;;;;;;;;;;;31.15;21.98;98941.44;5068239;28;19920;-90
2023/05/27 09:14:33;;;;;;;;;;;;;;;31.33;21.23;98933.03;5071920;28;19924;-91
2023/05/27 09:17:07;;;;;;;;;;;;;;;31.06;22.62;98934.91;5070823;28;19921;-91
2023/05/27 09:19:33;;;;;;;;;;;;;;;29.46;23.44;98938.59;5075750;28;20003;-89
2023/05/27 09:21:59;;;;;;;;;;;;;;;29.15;24.42;98929.78;5069832;28;19924;-88
2023/05/27 09:24:26;;;;;;;;;;;;;;;29.65;24.92;98931.94;5068646;28;19920;-89
2023/05/27 09:26:52;;;;;;;;;;;;;;;29.31;26.30;98929.75;5073030;28;19954;-90
2023/05/27 09:29:19;;;;;;;;;;;;;;;28.61;23.79;98928.91;5070678;28;19928;-90
2023/05/27 09:31:45;;;;;;;;;;;;;;;26.93;28.36;98929.59;5065603;28;20050;-91
2023/05/27 09:34:15;;;;;;;;;;;;;;;27.12;28.64;98922.34;5068287;28;19927;-90
2023/05/27 09:36:45;;;;;;;;;;;;;;;28.53;24.72;98919.00;5066008;28;19924;-87
2023/05/27 09:39:15;;;;;;;;;;;;;;;29.36;23.55;98908.59;5067830;28;19920;-91
2023/05/27 09:41:42;;;;;;;;;;;;;;;29.38;24.36;98909.72;5060887;28;20329;-90
2023/05/27 09:44:08;;;;;;;;;;;;;;;28.40;25.89;98912.50;5068463;28;20387;-91
2023/05/27 09:46:35;;;;;;;;;;;;;;;28.75;24.87;98917.22;5070887;28;19924;-91
2023/05/27 09:49:02;;;;;;;;;;;;;;;28.57;23.96;98917.66;5066231;28;19920;-90
2023/05/27 09:51:32;;;;;;;;;;;;;;;27.84;27.21;98918.28;5070616;28;20400;-90
2023/05/27 09:53:58;;;;;;;;;;;;;;;26.80;27.87;98925.81;5066165;28;19948;-89
2023/05/27 09:56:26;;;;;;;;;;;;;;;26.74;28.84;98930.31;5069196;28;19921;-90
2023/05/27 09:58:53;;;;;;;;;;;;;;;27.95;24.74;98924.50;5072164;28;19939;-90
2023/05/27 10:01:20;;;;;;;;;;;;;;;27.08;27.10;98916.78;5068833;28;19920;-91
2023/05/27 10:03:46;;;;;;;;;;;;;;;28.36;23.14;98917.44;5062414;28;20047;-88
2023/05/27 10:06:15;;;;;;;;;;;;;;;30.44;23.06;98914.00;5065751;28;19932;-88
2023/05/27 10:08:42;;;;;;;;;;;;;;;29.64;23.38;98904.88;5068820;28;19928;-86
2023/05/27 10:11:09;;;;;;;;;;;;;;;30.02;21.56;98911.34;5062592;28;19982;-86
2023/05/27 10:13:35;;;;;;;;;;;;;;;28.72;25.28;98916.09;5063846;28;19924;-87
2023/05/27 10:16:01;;;;;;;;;;;;;;;28.06;25.13;98916.59;5069537;28;19928;-87
2023/05/27 10:18:29;;;;;;;;;;;;;;;29.76;24.39;98901.28;5054275;28;20279;-87
2023/05/27 10:20:57;;;;;;;;;;;;;;;28.99;25.87;98910.06;5060518;28;19920;-87
2023/05/27 10:23:26;;;;;;;;;;;;;;;28.72;24.36;98903.97;5069388;28;19927;-86
2023/05/27 10:25:53;;;;;;;;;;;;;;;28.58;25.89;98905.13;5069950;28;20435;-84
2023/05/27 10:28:28;;;;;;;;;;;;;;;27.36;26.00;98898.44;5066431;28;19929;-83
2023/05/27 10:31:03;;;;;;;;;;;;;;;28.94;22.82;98904.19;5067896;28;19962;-84
2023/05/27 10:33:30;;;;;;;;;;;;;;;28.28;26.27;98904.75;5069710;28;19977;-84
2023/05/27 10:36:02;;;;;;;;;;;;;;;28.28;25.98;98902.72;5072884;28;20410;-85
2023/05/27 10:38:28;;;;;;;;;;;;;;;29.58;22.72;98892.53;5073149;28;20326;-85
2023/05/27 10:40:59;;;;;;;;;;;;;;;28.58;25.71;98905.13;5062842;28;20356;-88
2023/05/27 10:43:27;;;;;;;;;;;;;;;29.14;23.00;98901.97;5059763;28;19921;-89
2023/05/27 10:46:01;;;;;;;;;;;;;;;30.58;20.24;98907.84;5067222;28;19920;-88
2023/05/27 10:48:30;;;;;;;;;;;;;;;30.05;21.86;98904.00;5057414;28;19920;-88
2023/05/27 10:50:57;;;;;;;;;;;;;;;29.97;20.93;98900.59;5063277;28;19920;-88
2023/05/27 10:53:25;;;;;;;;;;;;;;;31.04;22.71;98909.06;5062959;28;19985;-89
2023/05/27 10:55:51;;;;;;;;;;;;;;;30.91;23.68;98902.63;5061208;28;19978;-87
2023/05/27 10:58:18;;;;;;;;;;;;;;;30.63;22.43;98899.56;5061816;28;20343;-87
2023/05/27 11:00:45;;;;;;;;;;;;;;;30.85;21.61;98893.13;5069781;28;20341;-86
2023/05/27 11:03:22;;;;;;;;;;;;;;;29.71;24.57;98893.31;5069217;28;19936;-88
2023/05/27 11:05:58;;;;;;;;;;;;;;;28.78;26.48;98893.69;5068279;28;19924;-89
2023/05/27 11:08:24;;;;;;;;;;;;;;;28.14;26.56;98880.50;5066736;28;19917;-89
2023/05/27 11:10:50;;;;;;;;;;;;;;;28.32;24.02;98885.66;5061604;28;19928;-88
2023/05/27 11:13:16;;;;;;;;;;;;;;;29.38;22.09;98889.16;5066842;28;19928;-88
2023/05/27 11:15:42;;;;;;;;;;;;;;;27.59;23.23;98880.59;5067499;28;19981;-87
2023/05/27 11:18:08;;;;;;;;;;;;;;;28.93;23.33;98877.13;5097359;28;19933;-88
2023/05/27 11:20:38;;;;;;;;;;;;;;;28.47;21.58;98887.66;5066551;28;20295;-85
2023/05/27 11:23:04;;;;;;;;;;;;;;;29.56;20.83;98880.09;5063538;28;19924;-86
2023/05/27 11:25:43;;;;;;;;;;;;;;;30.00;19.70;98879.88;5070736;28;20026;-85
2023/05/27 11:28:16;;;;;;;;;;;;;;;31.61;19.26;98870.75;5063253;28;19920;-85
2023/05/27 11:30:42;;;;;;;;;;;;;;;29.61;22.91;98883.16;5070668;28;20406;-87
2023/05/27 11:33:08;;;;;;;;;;;;;;;30.44;20.12;98882.84;5062052;28;19939;-86
2023/05/27 11:35:34;;;;;;;;;;;;;;;30.67;17.71;98873.91;5066081;28;19928;-86
2023/05/27 11:38:02;;;;;;;;;;;;;;;31.98;18.22;98867.59;5070043;28;19925;-84
2023/05/27 11:40:36;;;;;;;;;;;;;;;31.40;21.24;98869.53;5064438;28;19967;-86
2023/05/27 11:43:02;;;;;;;;;;;;;;;31.98;21.26;98866.81;5068151;28;19932;-85
2023/05/27 11:45:28;;;;;;;;;;;;;;;32.48;18.47;98876.84;5070357;28;19924;-85
2023/05/27 11:47:55;;;;;;;;;;;;;;;32.49;17.18;98867.03;5064826;28;19924;-86
2023/05/27 11:50:21;;;;;;;;;;;;;;;33.38;17.25;98862.56;5071331;28;19927;-88
2023/05/27 11:52:54;;;;;;;;;;;;;;;32.90;18.19;98862.81;5064312;28;20007;-86
2023/05/27 11:55:22;;;;;;;;;;;;;;;32.29;18.66;98853.31;5069066;28;20272;-86
2023/05/27 11:57:48;;;;;;;;;;;;;;;31.18;18.34;98857.44;5066717;28;20277;-87
2023/05/27 12:00:14;;;;;;;;;;;;;;;30.42;23.44;98869.13;5067318;28;20261;-86
2023/05/27 12:02:41;;;;;;;;;;;;;;;30.81;20.43;98872.63;5076943;28;20398;-85
2023/05/27 12:05:08;;;;;;;;;;;;;;;31.61;22.10;98863.03;5068252;28;19920;-82
2023/05/27 12:07:35;;;;;;;;;;;;;;;30.66;20.94;98863.84;5074049;28;19920;-85
2023/05/27 12:10:01;;;;;;;;;;;;;;;30.65;17.88;98854.53;5075059;28;19994;-84
2023/05/27 12:12:27;;;;;;;;;;;;;;;30.67;21.62;98860.53;5066043;28;19964;-84
2023/05/27 12:14:54;;;;;;;;;;;;;;;32.21;19.98;98849.16;5069842;28;19920;-84
2023/05/27 12:17:20;;;;;;;;;;;;;;;32.74;21.29;98849.72;5077069;28;19921;-84
2023/05/27 12:19:46;;;;;;;;;;;;;;;32.36;20.53;98844.47;5070032;28;19966;-85
2023/05/27 12:22:12;;;;;;;;;;;;;;;31.50;20.75;98851.31;5071944;28;19928;-85
2023/05/27 12:24:38;;;;;;;;;;;;;;;31.29;20.39;98850.09;5067445;28;19973;-86
2023/05/27 12:27:04;;;;;;;;;;;;;;;32.08;17.94;98845.69;5094427;28;19979;-84
2023/05/27 12:29:30;;;;;;;;;;;;;;;32.85;16.98;98850.00;5072640;28;20023;-82
2023/05/27 12:31:57;;;;;;;;;;;;;;;30.58;19.73;98854.78;5074327;28;19940;-83
2023/05/27 12:34:23;;;;;;;;;;;;;;;30.11;21.29;98856.06;5075528;28;19983;-82
2023/05/27 12:36:49;;;;;;;;;;;;;;;30.82;19.02;98840.16;5072651;28;19962;-82
2023/05/27 12:39:15;;;;;;;;;;;;;;;30.74;19.09;98850.97;5068414;28;20446;-84
2023/05/27 12:41:42;;;;;;;;;;;;;;;30.98;16.71;98835.09;5072823;28;20066;-83
2023/05/27 12:44:08;;;;;;;;;;;;;;;30.72;18.79;98837.25;5074463;28;20291;-82
2023/05/27 12:46:34;;;;;;;;;;;;;;;30.27;22.58;98838.91;5072506;28;20473;-83
2023/05/27 12:49:00;;;;;;;;;;;;;;;29.22;22.52;98833.44;5071870;28;19952;-82